Raymond, Montana
Current Conditions -  °F | °C
As of 10:35 PM on Thursday 27 Nov 2014 (Local Time) from KD50 Reporting Station
Overcast Overcast  
Wind Chill:   Ceiling: 1400
Heat Index: 14°   Visibility: 10mi
Dew Point: 10°   Wind: 13mph
Humidity: 86%   Direction: 100°E
Pressure: 29.84"   Gusts: NA
Location:  48.88°N, 104.58°W
Report Text: KD50 280535Z AUTO 10011KT 10SM OVC014 M10/M12 A2984 RMK AO2
Loading
Personal Weather Stations






























Interactive Weather Map New forecast layout! Learn more

10-Day Weather Forecast

Advertisements
Track Severe Weather on mobile